createdAt,value
2019-02-21T00:00:39.824Z,65.45
2019-02-21T00:05:42.506Z,65.79
2019-02-21T00:10:45.215Z,65.96
2019-02-21T00:15:47.968Z,66.18
2019-02-21T00:20:50.644Z,66.40
2019-02-21T00:25:55.731Z,66.30
2019-02-21T00:30:58.004Z,66.26
2019-02-21T00:36:00.710Z,66.55
2019-02-21T00:41:04.314Z,66.69
2019-02-21T00:46:07.007Z,66.70
2019-02-21T00:51:09.718Z,66.77
2019-02-21T00:56:12.394Z,66.70
2019-02-21T01:01:15.083Z,67.07
2019-02-21T01:06:17.775Z,67.23
2019-02-21T01:11:20.657Z,67.37
2019-02-21T01:16:23.338Z,67.46
2019-02-21T01:21:26.017Z,67.58
2019-02-21T01:26:28.739Z,67.46
2019-02-21T01:31:31.439Z,67.64
2019-02-21T01:36:34.123Z,67.72
2019-02-21T01:41:36.811Z,67.90
2019-02-21T01:46:39.536Z,67.88
2019-02-21T01:51:42.214Z,67.64
2019-02-21T01:56:44.898Z,68.02
2019-02-21T02:01:47.585Z,68.28
2019-02-21T02:06:50.267Z,68.34
2019-02-21T02:11:53.008Z,68.32
2019-02-21T02:16:55.671Z,68.50
2019-02-21T02:21:58.362Z,68.75
2019-02-21T02:27:01.119Z,68.52
2019-02-21T02:32:03.888Z,68.37
2019-02-21T02:37:06.588Z,68.21
2019-02-21T02:42:09.256Z,68.28
2019-02-21T02:47:11.930Z,68.35
2019-02-21T02:52:14.650Z,68.67
2019-02-21T02:57:17.337Z,68.61
2019-02-21T03:02:20.002Z,68.74
2019-02-21T03:07:22.677Z,68.99
2019-02-21T03:12:25.359Z,68.94
2019-02-21T03:17:28.063Z,68.49
2019-02-21T03:22:30.751Z,68.24
2019-02-21T03:27:33.470Z,67.77
2019-02-21T03:32:36.179Z,67.98
2019-02-21T03:37:38.913Z,67.89
2019-02-21T03:42:41.733Z,67.90
2019-02-21T03:47:44.413Z,67.94
2019-02-21T03:52:47.089Z,68.00
2019-02-21T03:57:49.768Z,68.27
2019-02-21T04:02:52.474Z,68.40
2019-02-21T04:07:55.176Z,68.85
2019-02-21T04:12:57.853Z,69.53
2019-02-21T04:18:00.573Z,69.82
2019-02-21T04:23:03.282Z,70.30
2019-02-21T04:28:05.971Z,70.54
2019-02-21T04:33:08.655Z,70.43
2019-02-21T04:38:11.350Z,70.52
2019-02-21T04:43:14.092Z,70.57
2019-02-21T04:48:16.774Z,70.84
2019-02-21T04:53:19.453Z,71.00
2019-02-21T04:58:22.561Z,71.11
2019-02-21T05:03:25.229Z,71.23
2019-02-21T05:08:27.926Z,71.30
2019-02-21T05:13:30.628Z,71.65
2019-02-21T05:18:33.388Z,71.50
2019-02-21T05:23:36.838Z,71.35
2019-02-21T05:28:41.296Z,71.50
2019-02-21T05:34:09.684Z,71.74
2019-02-21T05:39:34.854Z,72.31
2019-02-21T05:44:43.085Z,72.41
2019-02-21T05:49:54.274Z,72.53
2019-02-21T05:55:04.857Z,72.70
2019-02-21T06:00:42.601Z,72.92
2019-02-21T06:06:04.951Z,73.04
2019-02-21T06:11:25.946Z,73.27
2019-02-21T06:16:46.600Z,73.22
2019-02-21T06:22:10.138Z,73.07
2019-02-21T06:27:13.069Z,73.45
2019-02-21T06:32:15.730Z,73.19
2019-02-21T06:37:18.407Z,72.95
2019-02-21T06:42:21.112Z,72.74
2019-02-21T06:47:23.786Z,72.45
2019-02-21T06:52:26.464Z,72.57
2019-02-21T06:57:29.153Z,72.42
2019-02-21T07:02:31.817Z,72.44
2019-02-21T07:07:34.494Z,72.54
2019-02-21T07:12:37.163Z,72.88
2019-02-21T07:17:48.907Z,72.63
2019-02-21T07:22:44.405Z,72.59
2019-02-21T07:27:47.092Z,72.07
2019-02-21T07:32:49.758Z,71.57
2019-02-21T07:37:52.425Z,71.10
2019-02-21T07:42:55.083Z,70.86
2019-02-21T07:47:57.744Z,70.91
2019-02-21T07:53:02.706Z,71.41
2019-02-21T07:58:05.008Z,71.60
2019-02-21T08:03:09.181Z,71.24
2019-02-21T08:08:12.082Z,71.03
2019-02-21T08:13:14.751Z,71.21
2019-02-21T08:18:17.443Z,70.87
2019-02-21T08:23:20.147Z,70.92
2019-02-21T08:28:22.840Z,70.72
2019-02-21T08:33:58.357Z,70.27
2019-02-21T08:38:55.357Z,69.46
2019-02-21T08:43:58.028Z,68.76
2019-02-21T08:49:00.699Z,68.26
2019-02-21T08:54:05.545Z,68.61
2019-02-21T08:59:07.959Z,68.92
2019-02-21T09:04:26.417Z,68.39
2019-02-21T09:09:15.198Z,67.72
2019-02-21T09:14:17.883Z,67.31
2019-02-21T09:19:20.581Z,67.31
2019-02-21T09:24:37.499Z,67.63
2019-02-21T09:29:27.853Z,67.84
2019-02-21T09:34:30.527Z,68.09
2019-02-21T09:39:33.228Z,67.21
2019-02-21T09:44:36.019Z,66.43
2019-02-21T09:49:38.699Z,66.27
2019-02-21T09:54:41.389Z,66.85
2019-02-21T09:59:44.071Z,66.43
2019-02-21T10:04:46.748Z,65.81
2019-02-21T10:09:49.419Z,66.23
2019-02-21T10:14:52.111Z,66.61
2019-02-21T10:19:54.770Z,66.56
2019-02-21T10:24:57.466Z,65.72
2019-02-21T10:30:00.239Z,65.66
2019-02-21T10:35:03.555Z,66.24
2019-02-21T10:40:08.516Z,66.03
2019-02-21T10:45:13.892Z,68.19
2019-02-21T10:50:17.853Z,69.90
2019-02-21T10:55:24.157Z,71.03
2019-02-21T11:00:31.646Z,70.43
2019-02-21T11:05:44.263Z,68.91
2019-02-21T11:10:53.579Z,68.43
2019-02-21T11:15:56.327Z,67.84
2019-02-21T11:21:02.147Z,67.52
2019-02-21T11:26:06.232Z,67.39
2019-02-21T11:31:08.957Z,66.89
2019-02-21T11:36:11.639Z,67.02
2019-02-21T11:41:14.311Z,65.90
2019-02-21T11:46:16.981Z,66.18
2019-02-21T11:51:19.660Z,65.60
2019-02-21T11:56:22.334Z,65.90
2019-02-21T12:01:25.006Z,66.18
2019-02-21T12:06:27.678Z,66.18
2019-02-21T12:11:30.360Z,66.14
2019-02-21T12:16:33.038Z,66.15
2019-02-21T12:21:35.730Z,65.29
2019-02-21T12:26:38.400Z,64.95
2019-02-21T12:31:41.085Z,64.34
2019-02-21T12:36:43.774Z,64.74
2019-02-21T12:41:46.443Z,63.71
2019-02-21T12:46:49.143Z,63.25
2019-02-21T12:51:51.842Z,63.46
2019-02-21T12:56:54.516Z,62.64
2019-02-21T13:01:57.222Z,62.17
2019-02-21T13:06:59.923Z,62.14
2019-02-21T13:12:02.725Z,62.19
2019-02-21T13:17:05.403Z,62.57
2019-02-21T13:22:08.083Z,62.92
2019-02-21T13:27:10.759Z,63.63
2019-02-21T13:32:13.434Z,64.04
2019-02-21T13:37:27.971Z,63.99
2019-02-21T13:42:20.693Z,64.29
2019-02-21T13:47:23.374Z,64.99
2019-02-21T13:52:26.067Z,64.85
2019-02-21T13:57:28.743Z,65.26
2019-02-21T14:02:31.413Z,65.42
2019-02-21T14:07:34.102Z,65.18
2019-02-21T14:12:36.761Z,64.88
2019-02-21T14:17:39.452Z,67.38
2019-02-21T14:22:42.146Z,67.84
2019-02-21T14:27:44.851Z,67.65
2019-02-21T14:32:47.553Z,68.18
2019-02-21T14:37:50.228Z,69.95
2019-02-21T14:42:52.930Z,71.31
2019-02-21T14:47:55.640Z,70.66
2019-02-21T14:52:58.319Z,71.04
2019-02-21T14:58:01.015Z,71.29
2019-02-21T15:03:03.740Z,71.09
2019-02-21T15:08:06.427Z,73.27
2019-02-21T15:13:09.110Z,74.72
2019-02-21T15:18:11.814Z,76.18
2019-02-21T15:23:14.491Z,76.59
2019-02-21T15:28:17.167Z,76.29
2019-02-21T15:33:19.860Z,76.07
2019-02-21T15:38:22.538Z,76.13
2019-02-21T15:43:25.248Z,76.61
2019-02-21T15:48:27.971Z,76.84
2019-02-21T15:53:30.674Z,77.31
2019-02-21T15:58:33.371Z,77.83
2019-02-21T16:03:36.062Z,78.11
2019-02-21T16:08:38.734Z,78.73
2019-02-21T16:13:41.546Z,78.89
2019-02-21T16:18:44.818Z,78.90
2019-02-21T16:23:47.541Z,78.93
2019-02-21T16:28:50.289Z,78.92
2019-02-21T16:33:52.979Z,78.85
2019-02-21T16:44:02.101Z,78.71
2019-02-21T16:54:21.571Z,78.63
2019-02-21T16:59:24.244Z,78.68
2019-02-21T17:04:26.942Z,78.72
2019-02-21T17:09:29.678Z,78.57
2019-02-21T17:14:32.467Z,78.30
2019-02-21T17:19:35.180Z,78.19
2019-02-21T17:24:37.892Z,78.17
2019-02-21T17:29:40.577Z,78.23
2019-02-21T17:34:43.295Z,78.29
2019-02-21T17:39:45.976Z,78.06
2019-02-21T17:44:48.670Z,77.78
2019-02-21T17:49:51.365Z,77.98
2019-02-21T17:54:54.060Z,79.15
2019-02-21T17:59:56.779Z,80.23
2019-02-21T18:04:59.485Z,81.43
2019-02-21T18:10:02.712Z,82.12
2019-02-21T18:15:05.942Z,82.88
2019-02-21T18:20:09.263Z,83.62
2019-02-21T18:25:17.107Z,84.00
2019-02-21T18:30:19.799Z,84.40
2019-02-21T18:35:22.505Z,84.43
2019-02-21T18:40:25.207Z,84.78
2019-02-21T18:45:27.889Z,85.65
2019-02-21T18:50:38.199Z,85.86
2019-02-21T18:55:35.346Z,86.33
2019-02-21T19:00:38.093Z,86.44
2019-02-21T19:05:40.806Z,86.71
2019-02-21T19:10:43.553Z,86.75
2019-02-21T19:15:46.332Z,86.83
2019-02-21T19:20:49.100Z,86.75
2019-02-21T19:25:51.851Z,86.55
2019-02-21T19:31:03.795Z,86.76
2019-02-21T19:36:06.483Z,86.80
2019-02-21T19:41:09.492Z,86.67
2019-02-21T19:46:12.213Z,86.53
2019-02-21T19:51:14.894Z,86.84
2019-02-21T19:56:17.579Z,86.73
2019-02-21T20:01:20.278Z,86.74
2019-02-21T20:06:22.980Z,86.95
2019-02-21T20:11:25.727Z,86.90
2019-02-21T20:16:28.484Z,86.98
2019-02-21T20:21:31.295Z,87.15
2019-02-21T20:26:34.022Z,87.19
2019-02-21T20:31:36.702Z,87.04
2019-02-21T20:36:50.451Z,87.03
2019-02-21T20:41:44.068Z,86.90
2019-02-21T20:46:46.842Z,86.82
2019-02-21T20:51:49.529Z,86.78
2019-02-21T20:56:52.262Z,86.78
2019-02-21T21:01:54.987Z,86.72
2019-02-21T21:06:57.685Z,86.47
2019-02-21T21:12:00.362Z,86.38
2019-02-21T21:17:03.048Z,86.08
2019-02-21T21:22:05.763Z,86.06
2019-02-21T21:27:08.526Z,85.89
2019-02-21T21:32:11.220Z,85.92
2019-02-21T21:37:13.918Z,85.94
2019-02-21T21:42:16.612Z,85.94
2019-02-21T21:47:19.321Z,85.69
2019-02-21T21:52:22.028Z,85.51
2019-02-21T21:57:24.709Z,85.34
2019-02-21T22:02:27.407Z,84.97
2019-02-21T22:07:30.080Z,84.94
2019-02-21T22:12:32.768Z,84.48
2019-02-21T22:17:35.463Z,84.47
2019-02-21T22:22:38.152Z,84.50
2019-02-21T22:27:40.832Z,84.49
2019-02-21T22:32:43.581Z,84.48
2019-02-21T22:37:46.350Z,84.41
2019-02-21T22:42:49.048Z,84.61
2019-02-21T22:47:51.726Z,85.06
2019-02-21T22:52:54.399Z,85.16
2019-02-21T22:57:57.079Z,85.30
2019-02-21T23:03:00.563Z,85.47
2019-02-21T23:09:04.972Z,85.63
2019-02-21T23:14:07.650Z,85.47
2019-02-21T23:19:10.437Z,85.53
2019-02-21T23:24:13.151Z,85.25
2019-02-21T23:29:15.824Z,85.26
2019-02-21T23:34:32.577Z,85.03
2019-02-21T23:39:38.427Z,84.93
2019-02-21T23:44:39.853Z,84.80
2019-02-21T23:49:42.530Z,84.51
2019-02-21T23:54:45.213Z,84.77
2019-02-21T23:59:47.889Z,84.49
